createdAt,value
2018-06-23T00:01:19.489Z,78.61
2018-06-23T00:03:46.633Z,79.26
2018-06-23T00:06:13.768Z,79.35
2018-06-23T00:08:40.919Z,80.73
2018-06-23T00:11:08.059Z,80.91
2018-06-23T00:13:35.189Z,81.37
2018-06-23T00:16:02.258Z,80.25
2018-06-23T00:18:29.452Z,80.92
2018-06-23T00:20:56.585Z,80.15
2018-06-23T00:23:23.708Z,80.20
2018-06-23T00:25:56.546Z,79.92
2018-06-23T00:28:23.712Z,80.63
2018-06-23T00:30:50.875Z,81.02
2018-06-23T00:33:18.007Z,80.20
2018-06-23T00:35:45.120Z,80.71
2018-06-23T00:38:12.281Z,81.48
2018-06-23T00:40:39.420Z,81.33
2018-06-23T00:43:06.538Z,81.60
2018-06-23T00:45:33.661Z,81.59
2018-06-23T00:48:00.782Z,81.45
2018-06-23T00:50:27.925Z,81.84
2018-06-23T00:52:55.045Z,81.52
2018-06-23T00:55:22.183Z,82.07
2018-06-23T00:57:49.263Z,81.82
2018-06-23T01:00:17.500Z,81.84
2018-06-23T01:02:44.641Z,81.94
2018-06-23T01:05:11.753Z,82.50
2018-06-23T01:07:38.868Z,83.88
2018-06-23T01:10:06.200Z,83.40
2018-06-23T01:12:33.356Z,83.22
2018-06-23T01:15:00.479Z,82.52
2018-06-23T01:17:27.624Z,81.85
2018-06-23T01:19:54.744Z,81.72
2018-06-23T01:22:21.953Z,81.88
2018-06-23T01:24:49.120Z,82.17
2018-06-23T01:27:16.291Z,82.47
2018-06-23T01:29:43.455Z,82.73
2018-06-23T01:32:10.615Z,82.99
2018-06-23T01:34:37.712Z,83.44
2018-06-23T01:37:04.836Z,83.78
2018-06-23T01:39:31.984Z,84.37
2018-06-23T01:41:59.135Z,84.66
2018-06-23T01:44:26.473Z,84.97
2018-06-23T01:46:53.575Z,84.92
2018-06-23T01:49:20.719Z,85.18
2018-06-23T01:51:47.864Z,85.35
2018-06-23T01:54:15.046Z,85.52
2018-06-23T01:56:42.184Z,84.76
2018-06-23T01:59:09.372Z,85.24
2018-06-23T02:01:36.601Z,85.05
2018-06-23T02:04:03.920Z,85.55
2018-06-23T02:06:31.124Z,86.25
2018-06-23T02:08:58.251Z,85.14
2018-06-23T02:11:25.408Z,85.87
2018-06-23T02:13:58.393Z,86.61
2018-06-23T02:16:31.268Z,86.08
2018-06-23T02:19:03.968Z,87.35
2018-06-23T02:21:37.035Z,86.58
2018-06-23T02:24:09.825Z,85.99
2018-06-23T02:26:42.832Z,86.02
2018-06-23T02:29:15.791Z,86.46
2018-06-23T02:31:48.518Z,87.43
2018-06-23T02:34:21.594Z,87.21
2018-06-23T02:36:48.772Z,87.61
2018-06-23T02:39:15.868Z,87.13
2018-06-23T02:41:43.004Z,87.31
2018-06-23T02:44:10.155Z,87.60
2018-06-23T02:46:37.337Z,87.42
2018-06-23T02:49:04.588Z,87.50
2018-06-23T02:51:31.703Z,88.71
2018-06-23T02:53:58.852Z,87.74
2018-06-23T02:56:25.973Z,86.71
2018-06-23T02:58:53.116Z,86.40
2018-06-23T03:01:20.332Z,86.21
2018-06-23T03:03:47.512Z,86.81
2018-06-23T03:06:14.637Z,86.02
2018-06-23T03:08:41.761Z,87.54
2018-06-23T03:11:09.236Z,87.08
2018-06-23T03:13:36.376Z,86.45
2018-06-23T03:16:03.567Z,85.79
2018-06-23T03:18:30.646Z,85.41
2018-06-23T03:20:57.815Z,84.91
2018-06-23T03:23:25.036Z,83.92
2018-06-23T03:25:52.191Z,83.93
2018-06-23T03:28:19.381Z,83.54
2018-06-23T03:30:46.830Z,83.07
2018-06-23T03:33:13.984Z,84.26
2018-06-23T03:35:41.144Z,84.62
2018-06-23T03:38:08.336Z,85.22
2018-06-23T03:40:35.545Z,87.02
2018-06-23T03:43:02.710Z,87.10
2018-06-23T03:45:29.825Z,87.46
2018-06-23T03:47:56.964Z,86.56
2018-06-23T03:50:24.133Z,85.97
2018-06-23T03:52:51.333Z,85.28
2018-06-23T03:55:18.460Z,85.03
2018-06-23T03:57:45.581Z,84.88
2018-06-23T04:00:12.831Z,85.00
2018-06-23T04:02:39.985Z,84.25
2018-06-23T04:05:07.125Z,84.71
2018-06-23T04:07:34.497Z,84.55
2018-06-23T04:10:01.658Z,84.51
2018-06-23T04:12:28.808Z,84.99
2018-06-23T04:14:55.921Z,84.37
2018-06-23T04:17:23.136Z,83.90
2018-06-23T04:19:50.368Z,84.10
2018-06-23T04:22:17.520Z,82.90
2018-06-23T04:24:44.671Z,81.83
2018-06-23T04:27:11.904Z,81.17
2018-06-23T04:29:39.016Z,81.32
2018-06-23T04:32:06.162Z,81.05
2018-06-23T04:34:33.285Z,81.15
2018-06-23T04:37:00.480Z,80.92
2018-06-23T04:39:27.652Z,81.36
2018-06-23T04:41:54.792Z,81.69
2018-06-23T04:44:21.908Z,81.87
2018-06-23T04:46:49.035Z,82.35
2018-06-23T04:49:16.180Z,82.52
2018-06-23T04:51:43.401Z,82.81
2018-06-23T04:54:10.543Z,83.29
2018-06-23T04:56:37.705Z,83.51
2018-06-23T04:59:04.832Z,83.71
2018-06-23T05:01:32.091Z,83.30
2018-06-23T05:03:59.164Z,84.39
2018-06-23T05:06:26.274Z,84.74
2018-06-23T05:08:53.452Z,84.17
2018-06-23T05:11:20.620Z,84.32
2018-06-23T05:13:47.733Z,86.01
2018-06-23T05:16:14.863Z,84.95
2018-06-23T05:18:42.056Z,84.19
2018-06-23T05:21:09.191Z,83.69
2018-06-23T05:23:36.347Z,83.09
2018-06-23T05:26:03.504Z,84.93
2018-06-23T05:28:30.605Z,84.21
2018-06-23T05:30:57.752Z,82.85
2018-06-23T05:33:24.829Z,83.98
2018-06-23T05:35:52.493Z,83.06
2018-06-23T05:38:19.621Z,81.06
2018-06-23T05:40:46.753Z,81.48
2018-06-23T05:43:13.896Z,78.86
2018-06-23T05:45:41.068Z,79.17
2018-06-23T05:48:08.656Z,79.62
2018-06-23T05:50:35.844Z,79.62
2018-06-23T05:53:03.005Z,78.85
2018-06-23T05:55:30.169Z,78.60
2018-06-23T05:57:57.388Z,77.84
2018-06-23T06:00:24.604Z,76.33
2018-06-23T06:02:51.779Z,76.98
2018-06-23T06:05:19.016Z,75.71
2018-06-23T06:07:46.076Z,74.39
2018-06-23T06:10:13.217Z,73.53
2018-06-23T06:12:40.367Z,72.93
2018-06-23T06:15:08.360Z,73.86
2018-06-23T06:17:38.461Z,71.46
2018-06-23T06:20:08.045Z,69.81
2018-06-23T06:22:36.325Z,70.00
2018-06-23T06:25:04.213Z,68.34
2018-06-23T06:27:31.363Z,68.91
2018-06-23T06:29:58.849Z,68.95
2018-06-23T06:32:26.568Z,68.67
2018-06-23T06:34:53.725Z,67.28
2018-06-23T06:37:20.923Z,67.83
2018-06-23T06:39:48.091Z,67.75
2018-06-23T06:42:15.490Z,69.13
2018-06-23T06:44:42.711Z,69.06
2018-06-23T06:47:11.074Z,69.94
2018-06-23T06:49:38.297Z,66.43
2018-06-23T06:52:05.723Z,67.06
2018-06-23T06:54:32.908Z,68.57
2018-06-23T06:57:00.076Z,68.71
2018-06-23T06:59:27.203Z,68.97
2018-06-23T07:01:54.356Z,68.55
2018-06-23T07:04:21.488Z,67.52
2018-06-23T07:06:48.629Z,67.43
2018-06-23T07:09:15.793Z,66.23
2018-06-23T07:11:43.788Z,65.42
2018-06-23T07:14:10.915Z,64.62
2018-06-23T07:16:38.940Z,66.36
2018-06-23T07:19:06.097Z,67.22
2018-06-23T07:21:33.413Z,66.70
2018-06-23T07:24:01.166Z,67.53
2018-06-23T07:26:28.233Z,67.11
2018-06-23T07:28:55.519Z,66.20
2018-06-23T07:31:22.740Z,64.92
2018-06-23T07:33:50.413Z,63.59
2018-06-23T07:36:17.664Z,63.67
2018-06-23T07:38:44.865Z,62.25
2018-06-23T07:41:11.996Z,61.02
2018-06-23T07:43:39.125Z,62.45
2018-06-23T07:46:06.407Z,61.95
2018-06-23T07:48:33.551Z,63.59
2018-06-23T07:51:00.703Z,62.88
2018-06-23T07:53:28.238Z,62.24
2018-06-23T07:55:55.457Z,63.60
2018-06-23T07:58:22.601Z,63.91
2018-06-23T08:00:49.749Z,64.66
2018-06-23T08:03:16.864Z,61.81
2018-06-23T08:05:44.051Z,62.10
2018-06-23T08:08:11.141Z,65.37
2018-06-23T08:10:38.624Z,65.31
2018-06-23T08:13:06.350Z,64.46
2018-06-23T08:15:33.504Z,62.98
2018-06-23T08:18:00.648Z,62.74
2018-06-23T08:20:27.799Z,64.45
2018-06-23T08:22:54.914Z,62.44
2018-06-23T08:25:22.061Z,62.36
2018-06-23T08:27:49.140Z,64.34
2018-06-23T08:30:16.246Z,64.25
2018-06-23T08:32:43.408Z,62.47
2018-06-23T08:35:10.541Z,61.09
2018-06-23T08:37:37.752Z,61.20
2018-06-23T08:40:04.905Z,59.59
2018-06-23T08:42:32.070Z,58.26
2018-06-23T08:44:59.156Z,59.00
2018-06-23T08:47:33.266Z,58.35
2018-06-23T08:50:00.477Z,58.58
2018-06-23T08:52:27.631Z,57.26
2018-06-23T08:54:54.765Z,54.53
2018-06-23T08:57:21.951Z,57.64
2018-06-23T08:59:49.085Z,60.94
2018-06-23T09:02:16.248Z,58.86
2018-06-23T09:04:43.335Z,56.46
2018-06-23T09:07:10.519Z,55.54
2018-06-23T09:09:37.757Z,54.89
2018-06-23T09:12:04.983Z,55.60
2018-06-23T09:14:32.613Z,57.50
2018-06-23T09:16:59.799Z,54.99
2018-06-23T09:19:26.977Z,53.01
2018-06-23T09:21:54.178Z,53.38
2018-06-23T09:24:21.316Z,51.40
2018-06-23T09:26:48.468Z,52.43
2018-06-23T09:29:15.612Z,55.54
2018-06-23T09:31:42.817Z,54.44
2018-06-23T09:34:09.925Z,54.88
2018-06-23T09:36:37.075Z,54.91
2018-06-23T09:39:06.752Z,52.58
2018-06-23T09:41:33.956Z,53.40
2018-06-23T09:44:01.173Z,54.81
2018-06-23T09:46:28.309Z,50.00
2018-06-23T09:48:55.500Z,50.58
2018-06-23T09:51:22.640Z,52.11
2018-06-23T09:53:49.787Z,48.95
2018-06-23T09:56:16.944Z,49.97
2018-06-23T09:58:44.065Z,49.39
2018-06-23T10:01:11.209Z,50.15
2018-06-23T10:03:38.330Z,51.83
2018-06-23T10:06:05.472Z,48.74
2018-06-23T10:08:32.694Z,47.91
2018-06-23T10:10:59.836Z,48.87
2018-06-23T10:13:26.961Z,48.88
2018-06-23T10:15:54.121Z,48.67
2018-06-23T10:18:21.237Z,48.98
2018-06-23T10:20:48.405Z,47.97
2018-06-23T10:23:15.558Z,48.61
2018-06-23T10:25:42.686Z,50.25
2018-06-23T10:28:09.837Z,51.66
2018-06-23T10:30:36.946Z,51.50
2018-06-23T10:33:04.161Z,51.10
2018-06-23T10:35:31.283Z,51.33
2018-06-23T10:37:58.499Z,51.16
2018-06-23T10:40:25.602Z,50.64
2018-06-23T10:42:52.798Z,50.68
2018-06-23T10:47:53.841Z,52.42
2018-06-23T10:50:20.971Z,51.66
2018-06-23T10:52:48.180Z,52.01
2018-06-23T10:55:15.316Z,52.79
2018-06-23T10:57:42.498Z,52.44
2018-06-23T11:00:09.633Z,52.80
2018-06-23T11:02:36.824Z,51.83
2018-06-23T11:05:04.220Z,53.20
2018-06-23T11:07:31.384Z,54.13
2018-06-23T11:09:58.552Z,52.52
2018-06-23T11:12:25.714Z,53.32
2018-06-23T11:14:53.116Z,53.55
2018-06-23T11:17:20.342Z,54.89
2018-06-23T11:19:47.449Z,55.29
2018-06-23T11:22:14.553Z,56.24
2018-06-23T11:24:48.531Z,55.48
2018-06-23T11:27:15.653Z,56.28
2018-06-23T11:29:43.064Z,56.61
2018-06-23T11:32:10.233Z,57.55
2018-06-23T11:34:37.403Z,57.85
2018-06-23T11:37:04.913Z,59.20
2018-06-23T11:39:32.096Z,58.95
2018-06-23T11:41:59.300Z,59.05
2018-06-23T11:44:26.471Z,56.91
2018-06-23T11:46:53.598Z,57.57
2018-06-23T11:49:20.732Z,57.73
2018-06-23T11:51:47.927Z,58.46
2018-06-23T11:54:15.116Z,57.16
2018-06-23T11:56:42.313Z,58.34
2018-06-23T11:59:09.425Z,56.47
2018-06-23T12:01:36.620Z,56.37
2018-06-23T12:04:03.766Z,57.31
2018-06-23T12:06:30.887Z,57.04
2018-06-23T12:08:58.018Z,58.03
2018-06-23T12:11:25.169Z,58.39
2018-06-23T12:13:52.260Z,59.03
2018-06-23T12:16:19.411Z,58.05
2018-06-23T12:18:46.549Z,58.06
2018-06-23T12:21:13.702Z,57.90
2018-06-23T12:23:40.928Z,58.41
2018-06-23T12:26:08.100Z,56.08
2018-06-23T12:28:35.240Z,55.26
2018-06-23T12:31:02.423Z,55.14
2018-06-23T12:33:29.533Z,55.33
2018-06-23T12:35:56.671Z,56.33
2018-06-23T12:38:23.824Z,57.92
2018-06-23T12:40:50.973Z,57.47
2018-06-23T12:43:18.060Z,56.06
2018-06-23T12:45:45.260Z,57.26
2018-06-23T12:48:12.416Z,58.08
2018-06-23T12:50:39.605Z,58.24
2018-06-23T12:53:06.799Z,58.61
2018-06-23T12:55:33.881Z,56.82
2018-06-23T12:58:01.034Z,57.73
2018-06-23T13:00:28.202Z,57.55
2018-06-23T13:02:55.453Z,58.14
2018-06-23T13:05:22.657Z,57.65
2018-06-23T13:07:49.868Z,58.44
2018-06-23T13:10:17.079Z,58.57
2018-06-23T13:12:44.289Z,59.23
2018-06-23T13:15:11.492Z,58.98
2018-06-23T13:17:38.693Z,58.34
2018-06-23T13:20:05.901Z,58.72
2018-06-23T13:22:33.034Z,58.91
2018-06-23T13:25:00.201Z,60.12
2018-06-23T13:27:27.464Z,59.39
2018-06-23T13:29:54.733Z,58.63
2018-06-23T13:32:21.943Z,60.32
2018-06-23T13:34:49.189Z,60.85
2018-06-23T13:37:16.296Z,59.13
2018-06-23T13:39:43.561Z,60.07
2018-06-23T13:42:10.829Z,60.00
2018-06-23T13:44:37.960Z,60.13
2018-06-23T13:47:05.171Z,60.52
2018-06-23T13:49:32.370Z,60.10
2018-06-23T13:51:59.503Z,60.74
2018-06-23T13:54:26.703Z,62.19
2018-06-23T13:56:53.988Z,61.16
2018-06-23T13:59:21.115Z,62.38
2018-06-23T14:01:48.296Z,62.39
2018-06-23T14:04:15.650Z,62.73
2018-06-23T14:06:42.809Z,62.19
2018-06-23T14:09:11.395Z,62.07
2018-06-23T14:11:38.679Z,62.43
2018-06-23T14:14:05.896Z,62.05
2018-06-23T14:16:33.230Z,61.93
2018-06-23T14:19:00.410Z,61.69
2018-06-23T14:21:27.784Z,61.64
2018-06-23T14:23:54.989Z,60.93
2018-06-23T14:26:22.187Z,60.65
2018-06-23T14:28:49.399Z,61.55
2018-06-23T14:31:16.636Z,62.32
2018-06-23T14:33:43.852Z,60.44
2018-06-23T14:36:11.021Z,60.34
2018-06-23T14:38:38.226Z,60.31
2018-06-23T14:41:05.473Z,60.18
2018-06-23T14:43:32.687Z,62.68
2018-06-23T14:45:59.851Z,62.72
2018-06-23T14:48:27.048Z,62.81
2018-06-23T14:50:54.236Z,64.04
2018-06-23T14:53:21.406Z,63.79
2018-06-23T14:55:48.582Z,64.11
2018-06-23T14:58:15.774Z,62.71
2018-06-23T15:00:42.951Z,63.36
2018-06-23T15:03:10.117Z,63.95
2018-06-23T15:05:37.303Z,63.71
2018-06-23T15:08:16.277Z,64.09
2018-06-23T15:10:55.021Z,64.68
2018-06-23T15:13:22.185Z,64.94
2018-06-23T15:15:49.344Z,64.68
2018-06-23T15:18:16.472Z,65.73
2018-06-23T15:20:43.612Z,65.21
2018-06-23T15:23:11.025Z,65.88
2018-06-23T15:25:38.247Z,65.10
2018-06-23T15:28:05.454Z,65.95
2018-06-23T15:30:32.674Z,67.00
2018-06-23T15:32:59.973Z,66.29
2018-06-23T15:35:27.181Z,66.65
2018-06-23T15:37:54.410Z,67.17
2018-06-23T15:40:21.669Z,67.86
2018-06-23T15:42:49.005Z,68.81
2018-06-23T15:45:16.518Z,68.49
2018-06-23T15:47:44.045Z,68.00
2018-06-23T15:50:11.252Z,68.33
2018-06-23T15:52:39.284Z,68.30
2018-06-23T15:55:06.441Z,66.88
2018-06-23T15:57:33.633Z,67.72
2018-06-23T16:00:00.833Z,67.70
2018-06-23T16:02:28.041Z,67.00
2018-06-23T16:04:58.407Z,67.49
2018-06-23T16:07:26.080Z,68.63
2018-06-23T16:09:53.632Z,68.37
2018-06-23T16:12:21.119Z,68.71
2018-06-23T16:14:48.331Z,69.19
2018-06-23T16:17:15.782Z,69.70
2018-06-23T16:19:43.019Z,71.07
2018-06-23T16:22:10.193Z,74.80
2018-06-23T16:24:37.349Z,78.06
2018-06-23T16:27:04.492Z,81.16
2018-06-23T16:29:31.665Z,80.75
2018-06-23T16:31:58.892Z,80.56
2018-06-23T16:34:26.088Z,80.56
2018-06-23T16:36:53.309Z,79.48
2018-06-23T16:39:20.457Z,78.40
2018-06-23T16:41:47.652Z,78.82
2018-06-23T16:44:14.825Z,77.93
2018-06-23T16:46:42.042Z,75.38
2018-06-23T16:49:09.292Z,74.58
2018-06-23T16:51:36.662Z,73.27
2018-06-23T16:54:03.828Z,72.80
2018-06-23T16:56:31.052Z,70.76
2018-06-23T16:58:58.244Z,70.98
2018-06-23T17:01:25.534Z,70.04
2018-06-23T17:03:52.782Z,71.35
2018-06-23T17:06:19.958Z,72.15
2018-06-23T17:08:47.099Z,71.73
2018-06-23T17:11:14.321Z,70.83
2018-06-23T17:13:41.478Z,73.26
2018-06-23T17:16:08.660Z,73.04
2018-06-23T17:18:35.824Z,72.92
2018-06-23T17:21:03.032Z,72.65
2018-06-23T17:23:30.183Z,72.84
2018-06-23T17:25:57.332Z,72.13
2018-06-23T17:28:24.494Z,72.88
2018-06-23T17:30:51.629Z,71.93
2018-06-23T17:33:18.822Z,72.88
2018-06-23T17:35:45.993Z,71.82
2018-06-23T17:38:13.105Z,72.36
2018-06-23T17:40:40.236Z,72.58
2018-06-23T17:43:07.436Z,73.72
2018-06-23T17:45:34.591Z,73.63
2018-06-23T17:48:01.776Z,72.35
2018-06-23T17:50:28.948Z,72.59
2018-06-23T17:52:56.135Z,72.27
2018-06-23T17:55:23.305Z,72.93
2018-06-23T17:57:50.683Z,71.26
2018-06-23T18:00:17.711Z,72.33
2018-06-23T18:02:45.056Z,72.44
2018-06-23T18:05:12.184Z,71.63
2018-06-23T18:07:39.352Z,71.73
2018-06-23T18:10:06.540Z,71.45
2018-06-23T18:12:33.720Z,72.09
2018-06-23T18:15:00.833Z,71.67
2018-06-23T18:17:27.964Z,71.77
2018-06-23T18:19:55.105Z,71.90
2018-06-23T18:22:22.259Z,70.82
2018-06-23T18:24:49.391Z,70.79
2018-06-23T18:27:16.500Z,71.97
2018-06-23T18:29:43.684Z,71.61
2018-06-23T18:32:10.842Z,71.47
2018-06-23T18:34:37.973Z,71.61
2018-06-23T18:37:05.133Z,72.12
2018-06-23T18:39:32.318Z,71.82
2018-06-23T18:41:59.493Z,72.05
2018-06-23T18:44:26.644Z,71.94
2018-06-23T18:46:54.196Z,71.85
2018-06-23T18:49:21.380Z,72.61
2018-06-23T18:51:48.527Z,72.37
2018-06-23T18:54:15.743Z,72.07
2018-06-23T18:56:42.881Z,72.21
2018-06-23T18:59:10.058Z,71.79
2018-06-23T19:01:37.432Z,71.42
2018-06-23T19:04:04.829Z,71.87
2018-06-23T19:06:32.094Z,71.80
2018-06-23T19:08:59.259Z,72.65
2018-06-23T19:11:26.472Z,72.24
2018-06-23T19:13:53.607Z,72.14
2018-06-23T19:16:20.904Z,73.28
2018-06-23T19:18:48.047Z,72.97
2018-06-23T19:21:15.263Z,73.60
2018-06-23T19:23:42.369Z,73.61
2018-06-23T19:26:09.517Z,73.62
2018-06-23T19:28:36.712Z,73.53
2018-06-23T19:31:03.811Z,72.90
2018-06-23T19:33:31.039Z,73.28
2018-06-23T19:35:58.151Z,73.19
2018-06-23T19:38:25.336Z,72.16
2018-06-23T19:40:52.513Z,73.36
2018-06-23T19:43:19.621Z,73.83
2018-06-23T19:45:46.735Z,73.50
2018-06-23T19:48:13.824Z,73.69
2018-06-23T19:50:40.969Z,73.26
2018-06-23T19:53:08.160Z,74.61
2018-06-23T19:55:35.291Z,73.77
2018-06-23T19:58:02.415Z,74.19
2018-06-23T20:00:29.626Z,74.00
2018-06-23T20:02:56.833Z,74.91
2018-06-23T20:05:24.080Z,75.01
2018-06-23T20:07:51.255Z,74.10
2018-06-23T20:10:18.442Z,74.15
2018-06-23T20:12:45.592Z,74.71
2018-06-23T20:15:12.865Z,75.75
2018-06-23T20:17:40.077Z,76.21
2018-06-23T20:20:07.315Z,76.13
2018-06-23T20:22:34.511Z,75.24
2018-06-23T20:25:01.788Z,76.09
2018-06-23T20:27:28.932Z,74.21
2018-06-23T20:29:56.505Z,74.39
2018-06-23T20:32:23.813Z,73.91
2018-06-23T20:34:51.005Z,73.92
2018-06-23T20:37:18.176Z,73.90
2018-06-23T20:39:45.351Z,74.30
2018-06-23T20:42:12.516Z,74.20
2018-06-23T20:44:39.720Z,74.94
2018-06-23T20:47:06.829Z,75.32
2018-06-23T20:49:34.035Z,75.69
2018-06-23T20:52:01.576Z,74.53
2018-06-23T20:54:29.012Z,74.79
2018-06-23T20:56:56.296Z,76.00
2018-06-23T20:59:23.463Z,75.55
2018-06-23T21:01:50.620Z,77.26
2018-06-23T21:04:17.844Z,76.80
2018-06-23T21:06:45.037Z,79.04
2018-06-23T21:09:12.228Z,80.85
2018-06-23T21:11:39.476Z,81.27
2018-06-23T21:14:06.969Z,82.54
2018-06-23T21:16:34.200Z,82.60
2018-06-23T21:19:01.478Z,82.99
2018-06-23T21:21:28.751Z,83.64
2018-06-23T21:23:55.996Z,84.40
2018-06-23T21:26:23.355Z,83.73
2018-06-23T21:28:50.566Z,84.02
2018-06-23T21:31:17.700Z,84.35
2018-06-23T21:33:45.004Z,85.18
2018-06-23T21:36:12.181Z,85.16
2018-06-23T21:38:39.383Z,85.02
2018-06-23T21:41:06.763Z,84.71
2018-06-23T21:43:33.943Z,84.21
2018-06-23T21:46:01.111Z,85.13
2018-06-23T21:48:28.246Z,86.00
2018-06-23T21:50:55.420Z,84.56
2018-06-23T21:53:22.595Z,85.35
2018-06-23T21:55:49.783Z,84.88
2018-06-23T21:58:17.649Z,85.80
2018-06-23T22:00:45.325Z,85.78
2018-06-23T22:03:13.536Z,85.02
2018-06-23T22:05:40.785Z,86.64
2018-06-23T22:08:08.475Z,85.07
2018-06-23T22:10:35.737Z,85.75
2018-06-23T22:13:03.184Z,86.18
2018-06-23T22:15:30.412Z,85.51
2018-06-23T22:17:57.554Z,85.00
2018-06-23T22:20:24.801Z,84.61
2018-06-23T22:22:52.406Z,85.30
2018-06-23T22:25:19.878Z,85.31
2018-06-23T22:27:47.070Z,84.95
2018-06-23T22:30:14.418Z,85.27
2018-06-23T22:32:41.644Z,85.87
2018-06-23T22:35:09.281Z,85.79
2018-06-23T22:37:36.899Z,86.32
2018-06-23T22:40:04.132Z,85.97
2018-06-23T22:42:31.321Z,85.38
2018-06-23T22:44:58.724Z,85.02
2018-06-23T22:47:25.841Z,84.84
2018-06-23T22:49:53.015Z,85.01
2018-06-23T22:52:20.245Z,85.75
2018-06-23T22:54:47.733Z,85.79
2018-06-23T22:57:15.230Z,85.10
2018-06-23T22:59:42.418Z,85.58
2018-06-23T23:02:09.585Z,86.73
2018-06-23T23:04:36.832Z,87.00
2018-06-23T23:07:04.164Z,86.32
2018-06-23T23:09:31.331Z,85.05
2018-06-23T23:11:58.452Z,84.35
2018-06-23T23:14:25.599Z,84.79
2018-06-23T23:16:52.776Z,85.61
2018-06-23T23:19:19.921Z,86.27
2018-06-23T23:21:47.090Z,86.40
2018-06-23T23:24:14.257Z,86.81
2018-06-23T23:26:41.479Z,86.62
2018-06-23T23:29:08.612Z,85.47
2018-06-23T23:31:35.745Z,85.82
2018-06-23T23:34:02.900Z,87.26
2018-06-23T23:36:30.012Z,88.68
2018-06-23T23:38:57.109Z,88.11
2018-06-23T23:41:24.281Z,87.66
2018-06-23T23:43:51.415Z,86.91
2018-06-23T23:46:18.560Z,86.07
2018-06-23T23:48:45.704Z,86.74
2018-06-23T23:51:12.810Z,86.84
2018-06-23T23:53:39.968Z,86.97
2018-06-23T23:56:07.151Z,87.38
2018-06-23T23:58:34.269Z,86.21
